Terminal Aerodrome Forecast
Issued by NWS

Home | Current Version | Previous Version | Text Only | Print | Product List | Glossary On
Versions: 1 2 3 4 5 6 7 8 9 10 11 12 13
000
FTUS43 KICT 262340
TAFRSL
TAF
KRSL 262340Z 2700/2724 35010KT 4SM -SN BR OVC008
      TEMPO 2700/2704 1SM -SN BR OVC004
     FM270500 33012KT P6SM OVC015
     FM271500 31010KT P6SM SCT025
     FM271800 30010KT P6SM SKC=

USA.gov is the U.S. government's official web portal to all federal, state and local government web resources and services.